sensor_id;sensor_type;location;lat;lon;timestamp;pressure;altitude;pressure_sealevel;temperature;humidity
15263;BME280;7733;51.554;13.590;2023-02-02T00:01:29;100063.69;;;4.62;100.00
15263;BME280;7733;51.554;13.590;2023-02-02T00:03:55;100051.53;;;4.59;100.00
15263;BME280;7733;51.554;13.590;2023-02-02T00:06:25;100061.03;;;4.51;100.00
15263;BME280;7733;51.554;13.590;2023-02-02T00:08:52;100057.63;;;4.65;100.00
15263;BME280;7733;51.554;13.590;2023-02-02T00:11:18;100042.84;;;4.50;100.00
15263;BME280;7733;51.554;13.590;2023-02-02T00:13:45;100048.09;;;4.61;100.00
15263;BME280;7733;51.554;13.590;2023-02-02T00:18:58;100053.22;;;4.45;100.00
15263;BME280;7733;51.554;13.590;2023-02-02T00:21:24;100055.81;;;4.45;100.00
15263;BME280;7733;51.554;13.590;2023-02-02T00:23:51;100054.94;;;4.46;100.00
15263;BME280;7733;51.554;13.590;2023-02-02T00:26:18;100048.78;;;4.29;100.00
15263;BME280;7733;51.554;13.590;2023-02-02T00:28:44;100043.69;;;4.44;100.00
15263;BME280;7733;51.554;13.590;2023-02-02T00:31:10;100041.97;;;4.52;100.00
15263;BME280;7733;51.554;13.590;2023-02-02T00:33:36;100040.13;;;4.27;100.00
15263;BME280;7733;51.554;13.590;2023-02-02T00:36:03;100040.13;;;4.30;100.00
15263;BME280;7733;51.554;13.590;2023-02-02T00:38:30;100035.78;;;4.26;100.00
15263;BME280;7733;51.554;13.590;2023-02-02T00:40:56;100036.72;;;4.39;100.00
15263;BME280;7733;51.554;13.590;2023-02-02T00:43:22;100038.44;;;4.35;100.00
15263;BME280;7733;51.554;13.590;2023-02-02T00:45:48;100039.25;;;4.22;100.00
15263;BME280;7733;51.554;13.590;2023-02-02T00:48:14;100040.16;;;4.36;100.00
15263;BME280;7733;51.554;13.590;2023-02-02T00:50:40;100042.72;;;4.30;100.00
15263;BME280;7733;51.554;13.590;2023-02-02T00:53:06;100037.56;;;4.32;100.00
15263;BME280;7733;51.554;13.590;2023-02-02T00:55:31;100041.91;;;4.40;100.00
15263;BME280;7733;51.554;13.590;2023-02-02T00:57:57;100035.81;;;4.27;100.00
15263;BME280;7733;51.554;13.590;2023-02-02T01:00:25;100037.53;;;4.27;100.00
15263;BME280;7733;51.554;13.590;2023-02-02T01:02:53;100037.56;;;4.36;100.00
15263;BME280;7733;51.554;13.590;2023-02-02T01:05:19;100041.00;;;4.32;100.00
15263;BME280;7733;51.554;13.590;2023-02-02T01:07:46;100035.81;;;4.27;100.00
15263;BME280;7733;51.554;13.590;2023-02-02T01:10:16;100041.84;;;4.25;100.00
15263;BME280;7733;51.554;13.590;2023-02-02T01:12:43;100038.41;;;4.29;100.00
15263;BME280;7733;51.554;13.590;2023-02-02T01:15:10;100034.97;;;4.33;100.00
15263;BME280;7733;51.554;13.590;2023-02-02T01:17:37;100031.50;;;4.31;100.00
15263;BME280;7733;51.554;13.590;2023-02-02T01:20:04;100045.34;;;4.30;100.00
15263;BME280;7733;51.554;13.590;2023-02-02T01:22:31;100028.00;;;4.24;100.00
15263;BME280;7733;51.554;13.590;2023-02-02T01:24:58;100030.63;;;4.32;100.00
15263;BME280;7733;51.554;13.590;2023-02-02T01:27:24;100043.56;;;4.23;100.00
15263;BME280;7733;51.554;13.590;2023-02-02T01:29:50;100028.03;;;4.32;100.00
15263;BME280;7733;51.554;13.590;2023-02-02T01:32:16;100025.44;;;4.35;100.00
15263;BME280;7733;51.554;13.590;2023-02-02T01:34:42;100031.47;;;4.28;100.00
15263;BME280;7733;51.554;13.590;2023-02-02T01:37:09;100022.84;;;4.35;100.00
15263;BME280;7733;51.554;13.590;2023-02-02T01:39:35;100015.94;;;4.37;100.00
15263;BME280;7733;51.554;13.590;2023-02-02T01:42:02;100022.03;;;4.41;100.00
15263;BME280;7733;51.554;13.590;2023-02-02T01:47:26;100020.28;;;4.38;100.00
15263;BME280;7733;51.554;13.590;2023-02-02T01:49:54;100014.25;;;4.41;100.00
15263;BME280;7733;51.554;13.590;2023-02-02T01:52:25;100002.16;;;4.47;100.00
15263;BME280;7733;51.554;13.590;2023-02-02T01:54:59;100031.59;;;4.54;100.00
15263;BME280;7733;51.554;13.590;2023-02-02T01:57:40;100033.31;;;4.44;100.00
15263;BME280;7733;51.554;13.590;2023-02-02T02:00:13;100037.69;;;4.59;99.95
15263;BME280;7733;51.554;13.590;2023-02-02T02:02:47;100025.59;;;4.63;99.88
15263;BME280;7733;51.554;13.590;2023-02-02T02:05:20;100028.22;;;4.70;99.55
15263;BME280;7733;51.554;13.590;2023-02-02T02:07:50;100016.94;;;4.67;99.52
15263;BME280;7733;51.554;13.590;2023-02-02T02:10:18;100031.69;;;4.77;99.50
15263;BME280;7733;51.554;13.590;2023-02-02T02:12:46;100028.22;;;4.75;99.68
15263;BME280;7733;51.554;13.590;2023-02-02T02:15:12;100032.59;;;4.83;98.86
15263;BME280;7733;51.554;13.590;2023-02-02T02:18:03;100046.41;;;4.76;99.01
15263;BME280;7733;51.554;13.590;2023-02-02T02:20:53;100031.69;;;4.80;99.03
15263;BME280;7733;51.554;13.590;2023-02-02T02:33:14;100041.28;;;4.92;98.59
15263;BME280;7733;51.554;13.590;2023-02-02T02:36:03;100037.84;;;5.03;98.39
15263;BME280;7733;51.554;13.590;2023-02-02T02:38:46;100037.81;;;4.99;98.41
15263;BME280;7733;51.554;13.590;2023-02-02T02:41:22;100031.75;;;4.95;98.34
15263;BME280;7733;51.554;13.590;2023-02-02T02:44:06;100043.06;;;5.06;97.59
15263;BME280;7733;51.554;13.590;2023-02-02T02:46:34;100047.41;;;5.06;97.41
15263;BME280;7733;51.554;13.590;2023-02-02T02:49:01;100044.75;;;4.97;97.36
15263;BME280;7733;51.554;13.590;2023-02-02T02:54:05;100038.72;;;5.08;97.30
15263;BME280;7733;51.554;13.590;2023-02-02T02:56:43;100040.41;;;4.97;97.70
15263;BME280;7733;51.554;13.590;2023-02-02T02:59:40;100038.69;;;4.99;97.22
15263;BME280;7733;51.554;13.590;2023-02-02T03:10:29;100056.91;;;5.01;100.00
15263;BME280;7733;51.554;13.590;2023-02-02T03:12:57;100064.72;;;5.05;99.79
15263;BME280;7733;51.554;13.590;2023-02-02T03:15:22;100055.19;;;5.03;100.00
15263;BME280;7733;51.554;13.590;2023-02-02T03:17:51;100065.59;;;5.01;99.79
15263;BME280;7733;51.554;13.590;2023-02-02T03:20:19;100073.41;;;5.13;99.17
15263;BME280;7733;51.554;13.590;2023-02-02T03:22:45;100061.25;;;5.11;99.92
15263;BME280;7733;51.554;13.590;2023-02-02T03:25:11;100070.78;;;5.06;99.36
15263;BME280;7733;51.554;13.590;2023-02-02T03:27:38;100063.88;;;5.17;98.87
15263;BME280;7733;51.554;13.590;2023-02-02T03:30:08;100063.84;;;5.11;98.93
15263;BME280;7733;51.554;13.590;2023-02-02T03:32:35;100069.94;;;5.14;98.46
15263;BME280;7733;51.554;13.590;2023-02-02T03:35:02;100068.19;;;5.09;98.69
15263;BME280;7733;51.554;13.590;2023-02-02T03:37:28;100072.53;;;5.13;99.16
15263;BME280;7733;51.554;13.590;2023-02-02T03:39:54;100077.72;;;5.14;99.14
15263;BME280;7733;51.554;13.590;2023-02-02T03:42:19;100071.72;;;5.25;99.07
15263;BME280;7733;51.554;13.590;2023-02-02T03:44:45;100071.66;;;5.15;99.18
15263;BME280;7733;51.554;13.590;2023-02-02T03:47:11;100082.06;;;5.18;99.14
15263;BME280;7733;51.554;13.590;2023-02-02T03:49:36;100084.66;;;5.20;98.95
15263;BME280;7733;51.554;13.590;2023-02-02T03:52:02;100086.44;;;5.23;99.10
15263;BME280;7733;51.554;13.590;2023-02-02T03:54:29;100068.25;;;5.23;99.00
15263;BME280;7733;51.554;13.590;2023-02-02T03:56:56;100075.19;;;5.27;98.84
15263;BME280;7733;51.554;13.590;2023-02-02T03:59:22;100075.19;;;5.33;98.34
15263;BME280;7733;51.554;13.590;2023-02-02T04:01:48;100091.66;;;5.30;98.89
15263;BME280;7733;51.554;13.590;2023-02-02T04:04:14;100086.44;;;5.29;99.20
15263;BME280;7733;51.554;13.590;2023-02-02T04:06:40;100095.13;;;5.31;99.08
15263;BME280;7733;51.554;13.590;2023-02-02T04:09:05;100090.78;;;5.30;98.94
15263;BME280;7733;51.554;13.590;2023-02-02T04:11:31;100082.13;;;5.32;98.87
15263;BME280;7733;51.554;13.590;2023-02-02T04:13:57;100080.38;;;5.33;99.08
15263;BME280;7733;51.554;13.590;2023-02-02T04:16:23;100095.97;;;5.30;99.20
15263;BME280;7733;51.554;13.590;2023-02-02T04:18:48;100097.72;;;5.40;98.92
15263;BME280;7733;51.554;13.590;2023-02-02T04:21:14;100099.44;;;5.39;99.05
15263;BME280;7733;51.554;13.590;2023-02-02T04:23:40;100106.38;;;5.39;99.48
15263;BME280;7733;51.554;13.590;2023-02-02T04:26:05;100093.38;;;5.36;99.39
15263;BME280;7733;51.554;13.590;2023-02-02T04:28:31;100109.03;;;5.45;99.86
15263;BME280;7733;51.554;13.590;2023-02-02T04:30:57;100109.91;;;5.56;99.27
15263;BME280;7733;51.554;13.590;2023-02-02T04:33:26;100107.28;;;5.52;98.73
15263;BME280;7733;51.554;13.590;2023-02-02T04:35:52;100109.91;;;5.59;98.58
15263;BME280;7733;51.554;13.590;2023-02-02T04:38:18;100120.34;;;5.68;97.88
15263;BME280;7733;51.554;13.590;2023-02-02T04:40:46;100112.53;;;5.64;98.02
15263;BME280;7733;51.554;13.590;2023-02-02T04:43:13;100116.88;;;5.66;97.67
15263;BME280;7733;51.554;13.590;2023-02-02T04:45:39;100130.72;;;5.56;99.12
15263;BME280;7733;51.554;13.590;2023-02-02T04:48:06;100133.34;;;5.70;98.81
15263;BME280;7733;51.554;13.590;2023-02-02T04:50:32;100128.09;;;5.59;99.71
15263;BME280;7733;51.554;13.590;2023-02-02T04:52:58;100144.63;;;5.63;99.51
15263;BME280;7733;51.554;13.590;2023-02-02T04:55:24;100148.91;;;5.50;100.00
15263;BME280;7733;51.554;13.590;2023-02-02T04:57:50;100140.28;;;5.63;100.00
15263;BME280;7733;51.554;13.590;2023-02-02T05:00:16;100157.59;;;5.54;100.00
15263;BME280;7733;51.554;13.590;2023-02-02T05:02:42;100154.97;;;5.46;100.00
15263;BME280;7733;51.554;13.590;2023-02-02T05:05:12;100158.44;;;5.42;100.00
15263;BME280;7733;51.554;13.590;2023-02-02T05:07:38;100164.50;;;5.42;100.00
15263;BME280;7733;51.554;13.590;2023-02-02T05:10:06;100177.50;;;5.41;100.00
15263;BME280;7733;51.554;13.590;2023-02-02T05:12:33;100170.59;;;5.47;100.00
15263;BME280;7733;51.554;13.590;2023-02-02T05:14:58;100181.00;;;5.54;100.00
15263;BME280;7733;51.554;13.590;2023-02-02T05:17:30;100168.00;;;5.57;100.00
15263;BME280;7733;51.554;13.590;2023-02-02T05:19:56;100167.97;;;5.47;100.00
15263;BME280;7733;51.554;13.590;2023-02-02T05:22:22;100173.19;;;5.46;100.00
15263;BME280;7733;51.554;13.590;2023-02-02T05:24:48;100177.50;;;5.42;100.00
15263;BME280;7733;51.554;13.590;2023-02-02T05:27:13;100167.06;;;5.38;100.00
15263;BME280;7733;51.554;13.590;2023-02-02T05:29:39;100170.59;;;5.44;100.00
15263;BME280;7733;51.554;13.590;2023-02-02T05:32:05;100167.13;;;5.53;100.00
15263;BME280;7733;51.554;13.590;2023-02-02T05:34:30;100175.78;;;5.49;100.00
15263;BME280;7733;51.554;13.590;2023-02-02T05:36:57;100184.47;;;5.53;100.00
15263;BME280;7733;51.554;13.590;2023-02-02T05:39:22;100192.28;;;5.59;100.00
15263;BME280;7733;51.554;13.590;2023-02-02T05:41:48;100189.66;;;5.56;100.00
15263;BME280;7733;51.554;13.590;2023-02-02T05:44:14;100194.88;;;5.51;100.00
15263;BME280;7733;51.554;13.590;2023-02-02T05:46:40;100198.31;;;5.47;100.00
15263;BME280;7733;51.554;13.590;2023-02-02T05:49:06;100213.06;;;5.51;100.00
15263;BME280;7733;51.554;13.590;2023-02-02T05:51:39;100207.00;;;5.46;100.00
15263;BME280;7733;51.554;13.590;2023-02-02T05:54:08;100200.94;;;5.50;100.00
15263;BME280;7733;51.554;13.590;2023-02-02T05:56:34;100206.13;;;5.44;100.00
15263;BME280;7733;51.554;13.590;2023-02-02T05:58:59;100218.28;;;5.53;100.00
15263;BME280;7733;51.554;13.590;2023-02-02T06:01:25;100219.13;;;5.47;100.00
15263;BME280;7733;51.554;13.590;2023-02-02T06:03:51;100221.75;;;5.50;100.00
15263;BME280;7733;51.554;13.590;2023-02-02T06:06:17;100223.47;;;5.54;100.00
15263;BME280;7733;51.554;13.590;2023-02-02T06:08:43;100229.56;;;5.53;100.00
15263;BME280;7733;51.554;13.590;2023-02-02T06:11:14;100229.56;;;5.56;100.00
15263;BME280;7733;51.554;13.590;2023-02-02T06:13:41;100239.09;;;5.56;100.00
15263;BME280;7733;51.554;13.590;2023-02-02T06:16:08;100245.97;;;5.38;100.00
15263;BME280;7733;51.554;13.590;2023-02-02T06:18:35;100250.28;;;5.38;100.00
15263;BME280;7733;51.554;13.590;2023-02-02T06:21:03;100250.28;;;5.36;100.00
15263;BME280;7733;51.554;13.590;2023-02-02T06:23:32;100262.44;;;5.39;100.00
15263;BME280;7733;51.554;13.590;2023-02-02T06:25:58;100264.13;;;5.28;100.00
15263;BME280;7733;51.554;13.590;2023-02-02T06:28:25;100270.22;;;5.36;100.00
15263;BME280;7733;51.554;13.590;2023-02-02T06:30:50;100283.19;;;5.27;100.00
15263;BME280;7733;51.554;13.590;2023-02-02T06:33:16;100306.56;;;5.22;100.00
15263;BME280;7733;51.554;13.590;2023-02-02T06:35:42;100301.28;;;5.08;100.00
15263;BME280;7733;51.554;13.590;2023-02-02T06:38:08;100309.09;;;5.14;100.00
15263;BME280;7733;51.554;13.590;2023-02-02T06:40:35;100295.97;;;4.95;100.00
15263;BME280;7733;51.554;13.590;2023-02-02T06:43:02;100293.31;;;4.87;100.00
15263;BME280;7733;51.554;13.590;2023-02-02T06:45:29;100304.59;;;4.92;100.00
15263;BME280;7733;51.554;13.590;2023-02-02T06:47:59;100306.38;;;4.96;100.00
15263;BME280;7733;51.554;13.590;2023-02-02T06:50:28;100309.84;;;4.97;100.00
15263;BME280;7733;51.554;13.590;2023-02-02T06:52:54;100315.97;;;5.03;100.00
15263;BME280;7733;51.554;13.590;2023-02-02T06:55:20;100321.06;;;4.91;100.00
15263;BME280;7733;51.554;13.590;2023-02-02T06:57:46;100312.50;;;5.04;100.00
15263;BME280;7733;51.554;13.590;2023-02-02T07:00:13;100317.78;;;5.16;100.00
15263;BME280;7733;51.554;13.590;2023-02-02T07:02:39;100324.72;;;5.17;100.00
15263;BME280;7733;51.554;13.590;2023-02-02T07:05:05;100319.50;;;5.17;100.00
15263;BME280;7733;51.554;13.590;2023-02-02T07:07:33;100334.31;;;5.26;100.00
15263;BME280;7733;51.554;13.590;2023-02-02T07:09:59;100331.72;;;5.25;100.00
15263;BME280;7733;51.554;13.590;2023-02-02T07:12:25;100325.56;;;5.16;100.00
15263;BME280;7733;51.554;13.590;2023-02-02T07:14:52;100331.72;;;5.25;100.00
15263;BME280;7733;51.554;13.590;2023-02-02T07:17:18;100333.44;;;5.26;100.00
15263;BME280;7733;51.554;13.590;2023-02-02T07:19:44;100345.56;;;5.21;100.00
15263;BME280;7733;51.554;13.590;2023-02-02T07:22:10;100336.84;;;5.18;100.00
15263;BME280;7733;51.554;13.590;2023-02-02T07:24:36;100330.75;;;5.15;100.00
15263;BME280;7733;51.554;13.590;2023-02-02T07:27:04;100343.78;;;5.16;100.00
15263;BME280;7733;51.554;13.590;2023-02-02T07:29:30;100347.28;;;5.22;100.00
15263;BME280;7733;51.554;13.590;2023-02-02T07:31:56;100349.84;;;5.20;100.00
15263;BME280;7733;51.554;13.590;2023-02-02T07:34:22;100356.00;;;5.30;100.00
15263;BME280;7733;51.554;13.590;2023-02-02T07:36:48;100347.09;;;5.00;100.00
15263;BME280;7733;51.554;13.590;2023-02-02T07:39:14;100360.16;;;5.05;100.00
15263;BME280;7733;51.554;13.590;2023-02-02T07:41:40;100362.84;;;5.18;100.00
15263;BME280;7733;51.554;13.590;2023-02-02T07:44:06;100362.00;;;5.19;100.00
15263;BME280;7733;51.554;13.590;2023-02-02T07:46:32;100363.69;;;5.14;100.00
15263;BME280;7733;51.554;13.590;2023-02-02T07:48:57;100368.91;;;5.19;100.00
15263;BME280;7733;51.554;13.590;2023-02-02T07:51:25;100371.63;;;5.30;100.00
15263;BME280;7733;51.554;13.590;2023-02-02T07:53:54;100367.25;;;5.27;100.00
15263;BME280;7733;51.554;13.590;2023-02-02T07:56:26;100368.13;;;5.28;100.00
15263;BME280;7733;51.554;13.590;2023-02-02T07:58:56;100381.13;;;5.26;100.00
15263;BME280;7733;51.554;13.590;2023-02-02T08:01:23;100386.38;;;5.34;100.00
15263;BME280;7733;51.554;13.590;2023-02-02T08:03:51;100384.56;;;5.24;100.00
15263;BME280;7733;51.554;13.590;2023-02-02T08:06:24;100390.66;;;5.26;100.00
15263;BME280;7733;51.554;13.590;2023-02-02T08:08:52;100385.38;;;5.16;100.00
15263;BME280;7733;51.554;13.590;2023-02-02T08:11:20;100389.78;;;5.24;100.00
15263;BME280;7733;51.554;13.590;2023-02-02T08:13:55;100413.16;;;5.21;100.00
15263;BME280;7733;51.554;13.590;2023-02-02T08:16:22;100413.06;;;5.11;100.00
15263;BME280;7733;51.554;13.590;2023-02-02T08:18:49;100413.94;;;5.13;100.00
15263;BME280;7733;51.554;13.590;2023-02-02T08:21:16;100423.41;;;5.05;100.00
15263;BME280;7733;51.554;13.590;2023-02-02T08:23:43;100438.13;;;5.03;100.00
15263;BME280;7733;51.554;13.590;2023-02-02T08:28:41;100442.53;;;5.10;100.00
15263;BME280;7733;51.554;13.590;2023-02-02T08:31:13;100439.09;;;5.17;100.00
15263;BME280;7733;51.554;13.590;2023-02-02T08:33:39;100440.91;;;5.25;100.00
15263;BME280;7733;51.554;13.590;2023-02-02T08:36:12;100447.16;;;5.48;100.00
15263;BME280;7733;51.554;13.590;2023-02-02T08:38:38;100451.25;;;5.18;100.00
15263;BME280;7733;51.554;13.590;2023-02-02T08:41:07;100452.78;;;4.98;100.00
15263;BME280;7733;51.554;13.590;2023-02-02T08:43:34;100466.59;;;4.91;100.00
15263;BME280;7733;51.554;13.590;2023-02-02T08:46:00;100459.53;;;4.79;100.00
15263;BME280;7733;51.554;13.590;2023-02-02T08:48:26;100452.59;;;4.80;100.00
15263;BME280;7733;51.554;13.590;2023-02-02T08:50:57;100469.84;;;4.70;100.00
15263;BME280;7733;51.554;13.590;2023-02-02T08:53:24;100469.00;;;4.74;100.00
15263;BME280;7733;51.554;13.590;2023-02-02T08:58:23;100453.41;;;4.73;100.00
15263;BME280;7733;51.554;13.590;2023-02-02T09:00:49;100456.94;;;4.79;100.00
15263;BME280;7733;51.554;13.590;2023-02-02T09:03:15;100456.06;;;4.79;100.00
15263;BME280;7733;51.554;13.590;2023-02-02T09:05:41;100473.41;;;4.80;100.00
15263;BME280;7733;51.554;13.590;2023-02-02T09:08:07;100461.56;;;5.06;100.00
15263;BME280;7733;51.554;13.590;2023-02-02T09:10:36;100462.44;;;5.08;100.00
15263;BME280;7733;51.554;13.590;2023-02-02T09:13:03;100462.47;;;5.13;100.00
15263;BME280;7733;51.554;13.590;2023-02-02T09:15:29;100471.16;;;5.16;100.00
15263;BME280;7733;51.554;13.590;2023-02-02T09:17:55;100481.69;;;5.30;100.00
15263;BME280;7733;51.554;13.590;2023-02-02T09:20:21;100483.50;;;5.40;100.00
15263;BME280;7733;51.554;13.590;2023-02-02T09:22:47;100485.34;;;5.54;100.00
15263;BME280;7733;51.554;13.590;2023-02-02T09:25:13;100492.22;;;5.41;100.00
15263;BME280;7733;51.554;13.590;2023-02-02T09:27:39;100490.66;;;5.66;100.00
15263;BME280;7733;51.554;13.590;2023-02-02T09:30:07;100494.91;;;5.56;100.00
15263;BME280;7733;51.554;13.590;2023-02-02T09:32:34;100486.31;;;5.63;100.00
15263;BME280;7733;51.554;13.590;2023-02-02T09:34:59;100501.00;;;5.57;100.00
15263;BME280;7733;51.554;13.590;2023-02-02T09:37:28;100494.25;;;5.82;100.00
15263;BME280;7733;51.554;13.590;2023-02-02T09:39:54;100498.53;;;5.78;100.00
15263;BME280;7733;51.554;13.590;2023-02-02T09:45:55;100499.41;;;5.75;100.00
15263;BME280;7733;51.554;13.590;2023-02-02T09:49:01;100511.63;;;5.84;100.00
15263;BME280;7733;51.554;13.590;2023-02-02T09:51:34;100509.88;;;5.82;100.00
15263;BME280;7733;51.554;13.590;2023-02-02T09:54:19;100509.88;;;5.82;100.00
15263;BME280;7733;51.554;13.590;2023-02-02T09:56:48;100515.09;;;5.85;100.00
15263;BME280;7733;51.554;13.590;2023-02-02T09:59:26;100514.16;;;5.78;100.00
15263;BME280;7733;51.554;13.590;2023-02-02T10:02:02;100518.66;;;5.91;100.00
15263;BME280;7733;51.554;13.590;2023-02-02T10:04:37;100519.53;;;5.96;100.00
15263;BME280;7733;51.554;13.590;2023-02-02T10:07:38;100520.25;;;5.78;100.00
15263;BME280;7733;51.554;13.590;2023-02-02T10:10:17;100522.81;;;5.75;100.00
15263;BME280;7733;51.554;13.590;2023-02-02T10:13:02;100528.91;;;5.79;100.00
15263;BME280;7733;51.554;13.590;2023-02-02T10:16:02;100520.31;;;5.85;100.00
15263;BME280;7733;51.554;13.590;2023-02-02T10:18:50;100518.63;;;5.90;100.00
15263;BME280;7733;51.554;13.590;2023-02-02T10:23:52;100517.03;;;6.08;100.00
15263;BME280;7733;51.554;13.590;2023-02-02T10:26:42;100518.75;;;6.08;100.00
15263;BME280;7733;51.554;13.590;2023-02-02T10:32:25;100529.22;;;6.17;100.00
15263;BME280;7733;51.554;13.590;2023-02-02T10:38:17;100527.53;;;6.25;100.00
15263;BME280;7733;51.554;13.590;2023-02-02T10:40:58;100530.94;;;6.12;100.00
15263;BME280;7733;51.554;13.590;2023-02-02T10:43:31;100532.78;;;6.30;100.00
15263;BME280;7733;51.554;13.590;2023-02-02T10:46:39;100542.28;;;6.22;100.00
15263;BME280;7733;51.554;13.590;2023-02-02T10:51:40;100525.72;;;6.10;100.00
15263;BME280;7733;51.554;13.590;2023-02-02T11:03:07;100542.41;;;6.45;100.00
15263;BME280;7733;51.554;13.590;2023-02-02T11:05:35;100545.09;;;6.61;100.00
15263;BME280;7733;51.554;13.590;2023-02-02T11:08:41;100547.66;;;6.51;100.00
15263;BME280;7733;51.554;13.590;2023-02-02T11:11:19;100555.38;;;6.38;100.00
15263;BME280;7733;51.554;13.590;2023-02-02T11:14:01;100562.22;;;6.20;100.00
15263;BME280;7733;51.554;13.590;2023-02-02T11:16:30;100562.22;;;6.18;100.00
15263;BME280;7733;51.554;13.590;2023-02-02T11:18:57;100544.91;;;6.23;100.00
15263;BME280;7733;51.554;13.590;2023-02-02T11:21:30;100566.53;;;6.16;100.00
15263;BME280;7733;51.554;13.590;2023-02-02T11:24:15;100558.03;;;6.42;100.00
15263;BME280;7733;51.554;13.590;2023-02-02T11:26:50;100558.94;;;6.54;100.00
15263;BME280;7733;51.554;13.590;2023-02-02T11:31:53;100566.66;;;6.31;100.00
15263;BME280;7733;51.554;13.590;2023-02-02T11:34:25;100573.56;;;6.26;100.00
15263;BME280;7733;51.554;13.590;2023-02-02T11:37:00;100566.66;;;6.31;100.00
15263;BME280;7733;51.554;13.590;2023-02-02T11:39:26;100566.66;;;6.33;100.00
15263;BME280;7733;51.554;13.590;2023-02-02T11:44:55;100578.94;;;6.54;100.00
15263;BME280;7733;51.554;13.590;2023-02-02T11:47:29;100580.75;;;6.68;100.00
15263;BME280;7733;51.554;13.590;2023-02-02T11:49:58;100584.31;;;6.86;100.00
15263;BME280;7733;51.554;13.590;2023-02-02T11:52:28;100579.09;;;6.87;100.00
15263;BME280;7733;51.554;13.590;2023-02-02T11:55:01;100580.84;;;6.85;100.00
15263;BME280;7733;51.554;13.590;2023-02-02T11:57:33;100572.16;;;6.86;100.00
15263;BME280;7733;51.554;13.590;2023-02-02T12:00:19;100581.66;;;6.78;100.00
15263;BME280;7733;51.554;13.590;2023-02-02T12:02:51;100587.75;;;6.80;100.00
15263;BME280;7733;51.554;13.590;2023-02-02T12:07:47;100587.78;;;6.83;100.00
15263;BME280;7733;51.554;13.590;2023-02-02T12:13:39;100587.75;;;6.80;98.80
15263;BME280;7733;51.554;13.590;2023-02-02T12:21:55;100581.69;;;6.84;97.56
15263;BME280;7733;51.554;13.590;2023-02-02T12:24:37;100602.47;;;6.72;96.33
15263;BME280;7733;51.554;13.590;2023-02-02T12:27:35;100599.06;;;6.82;97.09
15263;BME280;7733;51.554;13.590;2023-02-02T12:33:15;100613.88;;;6.95;98.75
15263;BME280;7733;51.554;13.590;2023-02-02T12:38:51;100625.03;;;6.64;99.73
15263;BME280;7733;51.554;13.590;2023-02-02T12:44:28;100631.16;;;6.70;98.72
15263;BME280;7733;51.554;13.590;2023-02-02T13:02:38;100666.28;;;6.06;100.00
15263;BME280;7733;51.554;13.590;2023-02-02T13:07:57;100669.72;;;5.22;100.00
15263;BME280;7733;51.554;13.590;2023-02-02T13:10:32;100675.00;;;5.29;100.00
15263;BME280;7733;51.554;13.590;2023-02-02T13:13:12;100671.75;;;5.47;100.00
15263;BME280;7733;51.554;13.590;2023-02-02T13:15:50;100670.84;;;5.43;100.00
15263;BME280;7733;51.554;13.590;2023-02-02T13:18:27;100675.41;;;5.64;100.00
15263;BME280;7733;51.554;13.590;2023-02-02T13:21:00;100683.09;;;5.54;100.00
15263;BME280;7733;51.554;13.590;2023-02-02T13:23:36;100680.59;;;5.64;100.00
15263;BME280;7733;51.554;13.590;2023-02-02T13:26:26;100690.25;;;5.74;100.00
15263;BME280;7733;51.554;13.590;2023-02-02T13:29:10;100689.56;;;5.91;100.00
15263;BME280;7733;51.554;13.590;2023-02-02T13:31:59;100687.03;;;5.98;100.00
15263;BME280;7733;51.554;13.590;2023-02-02T13:34:58;100690.66;;;6.13;100.00
15263;BME280;7733;51.554;13.590;2023-02-02T13:42:55;100694.41;;;6.47;100.00
15263;BME280;7733;51.554;13.590;2023-02-02T13:51:19;100704.22;;;6.81;100.00
15263;BME280;7733;51.554;13.590;2023-02-02T13:59:56;100720.78;;;6.91;100.00
15263;BME280;7733;51.554;13.590;2023-02-02T14:02:52;100724.28;;;7.00;100.00
15263;BME280;7733;51.554;13.590;2023-02-02T14:05:35;100724.41;;;7.19;100.00
15263;BME280;7733;51.554;13.590;2023-02-02T14:10:42;100728.69;;;7.05;100.00
15263;BME280;7733;51.554;13.590;2023-02-02T14:16:42;100733.91;;;7.01;98.32
15263;BME280;7733;51.554;13.590;2023-02-02T14:27:01;100759.00;;;6.89;98.20
15263;BME280;7733;51.554;13.590;2023-02-02T14:34:39;100784.34;;;7.07;98.36
15263;BME280;7733;51.554;13.590;2023-02-02T14:48:46;100830.84;;;5.79;100.00
15263;BME280;7733;51.554;13.590;2023-02-02T14:51:21;100836.09;;;5.82;100.00
15263;BME280;7733;51.554;13.590;2023-02-02T14:53:56;100839.63;;;5.87;100.00
15263;BME280;7733;51.554;13.590;2023-02-02T14:56:42;100839.41;;;5.70;100.00
15263;BME280;7733;51.554;13.590;2023-02-02T14:59:20;100851.59;;;5.74;100.00
15263;BME280;7733;51.554;13.590;2023-02-02T15:04:26;100863.16;;;5.92;100.00
15263;BME280;7733;51.554;13.590;2023-02-02T15:06:53;100864.00;;;5.91;100.00
15263;BME280;7733;51.554;13.590;2023-02-02T15:17:43;100889.22;;;5.95;100.00
15263;BME280;7733;51.554;13.590;2023-02-02T15:20:32;100888.91;;;5.73;100.00
15263;BME280;7733;51.554;13.590;2023-02-02T15:23:28;100903.06;;;5.91;100.00
15263;BME280;7733;51.554;13.590;2023-02-02T15:26:23;100912.25;;;5.67;100.00
15263;BME280;7733;51.554;13.590;2023-02-02T15:29:12;100910.38;;;5.60;100.00
15263;BME280;7733;51.554;13.590;2023-02-02T15:31:44;100911.47;;;5.74;100.00
15263;BME280;7733;51.554;13.590;2023-02-02T15:34:40;100920.88;;;5.63;100.00
15263;BME280;7733;51.554;13.590;2023-02-02T15:37:22;100915.84;;;5.77;100.00
15263;BME280;7733;51.554;13.590;2023-02-02T15:39:53;100931.25;;;5.62;100.00
15263;BME280;7733;51.554;13.590;2023-02-02T15:42:45;100941.53;;;5.56;100.00
15263;BME280;7733;51.554;13.590;2023-02-02T15:45:51;100948.63;;;5.64;100.00
15263;BME280;7733;51.554;13.590;2023-02-02T15:48:26;100950.16;;;5.52;100.00
15263;BME280;7733;51.554;13.590;2023-02-02T15:50:58;100959.34;;;5.30;100.00